sensor_id;sensor_type;location;lat;lon;timestamp;pressure;altitude;pressure_sealevel;temperature;humidity
60845;BME280;47984;51.250;6.712;2022-10-16T00:03:39;100879.53;;;11.41;62.78
60845;BME280;47984;51.250;6.712;2022-10-16T00:06:16;100877.81;;;11.40;63.04
60845;BME280;47984;51.250;6.712;2022-10-16T00:08:50;100882.22;;;11.38;62.95
60845;BME280;47984;51.250;6.712;2022-10-16T00:11:25;100875.34;;;11.35;63.24
60845;BME280;47984;51.250;6.712;2022-10-16T00:14:10;100877.16;;;11.33;62.83
60845;BME280;47984;51.250;6.712;2022-10-16T00:16:42;100879.81;;;11.32;63.18
60845;BME280;47984;51.250;6.712;2022-10-16T00:19:12;100899.75;;;11.31;62.91
60845;BME280;47984;51.250;6.712;2022-10-16T00:21:41;100897.22;;;11.29;63.03
60845;BME280;47984;51.250;6.712;2022-10-16T00:24:16;100886.94;;;11.25;62.98
60845;BME280;47984;51.250;6.712;2022-10-16T00:26:52;100893.00;;;11.25;63.13
60845;BME280;47984;51.250;6.712;2022-10-16T00:29:23;100895.63;;;11.24;63.09
60845;BME280;47984;51.250;6.712;2022-10-16T00:31:51;100885.38;;;11.19;62.94
60845;BME280;47984;51.250;6.712;2022-10-16T00:34:23;100879.25;;;11.20;62.86
60845;BME280;47984;51.250;6.712;2022-10-16T00:36:56;100879.25;;;11.20;63.26
60845;BME280;47984;51.250;6.712;2022-10-16T00:39:25;100878.41;;;11.20;62.79
60845;BME280;47984;51.250;6.712;2022-10-16T00:41:58;100881.03;;;11.20;63.12
60845;BME280;47984;51.250;6.712;2022-10-16T00:44:55;100871.69;;;11.13;63.32
60845;BME280;47984;51.250;6.712;2022-10-16T00:47:43;100881.97;;;11.17;62.79
60845;BME280;47984;51.250;6.712;2022-10-16T00:50:33;100872.50;;;11.15;62.94
60845;BME280;47984;51.250;6.712;2022-10-16T00:53:07;100869.94;;;11.13;63.23
60845;BME280;47984;51.250;6.712;2022-10-16T00:55:38;100871.72;;;11.11;63.18
60845;BME280;47984;51.250;6.712;2022-10-16T00:58:12;100875.25;;;11.10;62.95
60845;BME280;47984;51.250;6.712;2022-10-16T01:00:41;100878.72;;;11.09;62.95
60845;BME280;47984;51.250;6.712;2022-10-16T01:03:39;100871.81;;;11.08;62.97
60845;BME280;47984;51.250;6.712;2022-10-16T01:06:36;100865.81;;;11.06;63.18
60845;BME280;47984;51.250;6.712;2022-10-16T01:14:31;100887.59;;;11.03;62.99
60845;BME280;47984;51.250;6.712;2022-10-16T01:17:11;100890.22;;;11.02;63.15
60845;BME280;47984;51.250;6.712;2022-10-16T01:22:12;100902.38;;;11.01;63.18
60845;BME280;47984;51.250;6.712;2022-10-16T01:24:48;100900.69;;;11.00;62.90
60845;BME280;47984;51.250;6.712;2022-10-16T01:30:20;100896.41;;;10.98;62.79
60845;BME280;47984;51.250;6.712;2022-10-16T01:32:53;100897.34;;;10.95;62.85
60845;BME280;47984;51.250;6.712;2022-10-16T01:35:25;100892.16;;;10.94;63.09
60845;BME280;47984;51.250;6.712;2022-10-16T01:38:12;100894.78;;;10.94;63.31
60845;BME280;47984;51.250;6.712;2022-10-16T01:40:46;100888.78;;;10.92;63.16
60845;BME280;47984;51.250;6.712;2022-10-16T01:43:17;100889.66;;;10.91;62.74
60845;BME280;47984;51.250;6.712;2022-10-16T01:45:46;100894.00;;;10.90;62.96
60845;BME280;47984;51.250;6.712;2022-10-16T01:48:18;100891.47;;;10.89;63.06
60845;BME280;47984;51.250;6.712;2022-10-16T01:51:09;100895.81;;;10.88;62.87
60845;BME280;47984;51.250;6.712;2022-10-16T01:53:40;100903.66;;;10.87;62.98
60845;BME280;47984;51.250;6.712;2022-10-16T01:56:11;100901.06;;;10.87;63.13
60845;BME280;47984;51.250;6.712;2022-10-16T01:58:45;100897.59;;;10.86;62.87
60845;BME280;47984;51.250;6.712;2022-10-16T02:01:16;100901.06;;;10.87;63.17
60845;BME280;47984;51.250;6.712;2022-10-16T02:03:46;100894.94;;;10.88;62.87
60845;BME280;47984;51.250;6.712;2022-10-16T02:06:16;100893.22;;;10.88;63.11
60845;BME280;47984;51.250;6.712;2022-10-16T02:08:43;100888.91;;;10.87;63.02
60845;BME280;47984;51.250;6.712;2022-10-16T02:11:10;100900.16;;;10.88;62.86
60845;BME280;47984;51.250;6.712;2022-10-16T02:14:17;100902.81;;;10.86;62.72
60845;BME280;47984;51.250;6.712;2022-10-16T02:16:45;100906.25;;;10.87;62.95
60845;BME280;47984;51.250;6.712;2022-10-16T02:19:15;100903.66;;;10.87;63.03
60845;BME280;47984;51.250;6.712;2022-10-16T02:21:58;100906.25;;;10.87;62.89
60845;BME280;47984;51.250;6.712;2022-10-16T02:24:51;100903.66;;;10.87;62.90
60845;BME280;47984;51.250;6.712;2022-10-16T02:30:05;100913.22;;;10.86;62.78
60845;BME280;47984;51.250;6.712;2022-10-16T02:32:37;100910.56;;;10.88;62.78
60845;BME280;47984;51.250;6.712;2022-10-16T02:35:06;100916.66;;;10.87;62.76
60845;BME280;47984;51.250;6.712;2022-10-16T02:37:34;100918.34;;;10.88;62.90
60845;BME280;47984;51.250;6.712;2022-10-16T02:40:03;100914.91;;;10.87;63.03
60845;BME280;47984;51.250;6.712;2022-10-16T02:42:36;100912.38;;;10.86;62.76
60845;BME280;47984;51.250;6.712;2022-10-16T02:45:04;100915.75;;;10.88;62.85
60845;BME280;47984;51.250;6.712;2022-10-16T02:47:31;100920.09;;;10.89;62.70
60845;BME280;47984;51.250;6.712;2022-10-16T02:49:59;100906.22;;;10.88;62.65
60845;BME280;47984;51.250;6.712;2022-10-16T02:52:26;100908.00;;;10.86;62.71
60845;BME280;47984;51.250;6.712;2022-10-16T02:54:54;100911.44;;;10.88;62.80
60845;BME280;47984;51.250;6.712;2022-10-16T02:57:20;100915.75;;;10.88;63.03
60845;BME280;47984;51.250;6.712;2022-10-16T02:59:47;100914.97;;;10.86;62.87
60845;BME280;47984;51.250;6.712;2022-10-16T03:02:14;100914.88;;;10.89;63.06
60845;BME280;47984;51.250;6.712;2022-10-16T03:04:41;100919.19;;;10.90;62.81
60845;BME280;47984;51.250;6.712;2022-10-16T03:07:08;100919.19;;;10.90;62.94
60845;BME280;47984;51.250;6.712;2022-10-16T03:09:35;100915.81;;;10.86;62.63
60845;BME280;47984;51.250;6.712;2022-10-16T03:12:02;100912.28;;;10.89;62.70
60845;BME280;47984;51.250;6.712;2022-10-16T03:14:29;100908.84;;;10.88;62.61
60845;BME280;47984;51.250;6.712;2022-10-16T03:16:56;100910.56;;;10.88;62.95
60845;BME280;47984;51.250;6.712;2022-10-16T03:19:22;100911.47;;;10.87;62.86
60845;BME280;47984;51.250;6.712;2022-10-16T03:21:49;100907.16;;;10.86;62.81
60845;BME280;47984;51.250;6.712;2022-10-16T03:24:16;100909.78;;;10.86;62.85
60845;BME280;47984;51.250;6.712;2022-10-16T03:26:43;100904.56;;;10.86;62.66
60845;BME280;47984;51.250;6.712;2022-10-16T03:29:10;100908.00;;;10.86;62.94
60845;BME280;47984;51.250;6.712;2022-10-16T03:31:37;100912.38;;;10.86;62.70
60845;BME280;47984;51.250;6.712;2022-10-16T03:34:03;100920.16;;;10.86;62.66
60845;BME280;47984;51.250;6.712;2022-10-16T03:36:30;100919.34;;;10.83;62.86
60845;BME280;47984;51.250;6.712;2022-10-16T03:38:57;100927.97;;;10.86;63.01
60845;BME280;47984;51.250;6.712;2022-10-16T03:41:24;100925.38;;;10.86;62.63
60845;BME280;47984;51.250;6.712;2022-10-16T03:43:51;100921.03;;;10.85;62.63
60845;BME280;47984;51.250;6.712;2022-10-16T03:46:18;100930.59;;;10.84;62.75
60845;BME280;47984;51.250;6.712;2022-10-16T03:48:45;100928.00;;;10.84;62.91
60845;BME280;47984;51.250;6.712;2022-10-16T03:51:12;100915.97;;;10.80;62.81
60845;BME280;47984;51.250;6.712;2022-10-16T03:53:38;100934.13;;;10.81;62.63
60845;BME280;47984;51.250;6.712;2022-10-16T03:56:05;100935.03;;;10.80;62.73
60845;BME280;47984;51.250;6.712;2022-10-16T03:58:32;100931.63;;;10.78;62.91
60845;BME280;47984;51.250;6.712;2022-10-16T04:01:00;100931.63;;;10.78;62.96
60845;BME280;47984;51.250;6.712;2022-10-16T04:03:27;100921.28;;;10.75;63.01
60845;BME280;47984;51.250;6.712;2022-10-16T04:05:54;100933.47;;;10.73;62.72
60845;BME280;47984;51.250;6.712;2022-10-16T04:08:21;100950.00;;;10.72;62.87
60845;BME280;47984;51.250;6.712;2022-10-16T04:10:48;100956.06;;;10.71;62.90
60845;BME280;47984;51.250;6.712;2022-10-16T04:13:15;100952.66;;;10.69;62.76
60845;BME280;47984;51.250;6.712;2022-10-16T04:15:44;100946.59;;;10.69;62.98
60845;BME280;47984;51.250;6.712;2022-10-16T04:18:11;100944.06;;;10.66;62.82
60845;BME280;47984;51.250;6.712;2022-10-16T04:20:43;100958.81;;;10.67;62.66
60845;BME280;47984;51.250;6.712;2022-10-16T04:23:14;100963.16;;;10.66;63.09
60845;BME280;47984;51.250;6.712;2022-10-16T04:25:43;100965.78;;;10.65;62.78
60845;BME280;47984;51.250;6.712;2022-10-16T04:28:12;100976.22;;;10.63;63.02
60845;BME280;47984;51.250;6.712;2022-10-16T04:30:40;100984.13;;;10.60;62.76
60845;BME280;47984;51.250;6.712;2022-10-16T04:33:09;100978.09;;;10.56;62.93
60845;BME280;47984;51.250;6.712;2022-10-16T04:35:36;100980.63;;;10.59;62.75
60845;BME280;47984;51.250;6.712;2022-10-16T04:38:03;100976.34;;;10.58;62.89
60845;BME280;47984;51.250;6.712;2022-10-16T04:40:30;100965.16;;;10.55;62.82
60845;BME280;47984;51.250;6.712;2022-10-16T04:43:03;100962.59;;;10.53;62.71
60845;BME280;47984;51.250;6.712;2022-10-16T04:45:31;100966.00;;;10.55;62.81
60845;BME280;47984;51.250;6.712;2022-10-16T04:47:58;100968.66;;;10.54;62.36
60845;BME280;47984;51.250;6.712;2022-10-16T04:50:26;100993.78;;;10.53;62.98
60845;BME280;47984;51.250;6.712;2022-10-16T04:52:53;100980.09;;;10.47;62.80
60845;BME280;47984;51.250;6.712;2022-10-16T04:55:20;100987.94;;;10.45;62.80
60845;BME280;47984;51.250;6.712;2022-10-16T04:57:47;100990.50;;;10.47;62.59
60845;BME280;47984;51.250;6.712;2022-10-16T05:00:13;100994.00;;;10.46;62.68
60845;BME280;47984;51.250;6.712;2022-10-16T05:02:40;100997.44;;;10.46;62.83
60845;BME280;47984;51.250;6.712;2022-10-16T05:05:07;101000.91;;;10.47;63.00
60845;BME280;47984;51.250;6.712;2022-10-16T05:07:34;101001.81;;;10.44;62.65
60845;BME280;47984;51.250;6.712;2022-10-16T05:10:01;101005.31;;;10.45;62.60
60845;BME280;47984;51.250;6.712;2022-10-16T05:12:29;101000.97;;;10.44;62.75
60845;BME280;47984;51.250;6.712;2022-10-16T05:14:55;101007.06;;;10.43;62.99
60845;BME280;47984;51.250;6.712;2022-10-16T05:17:26;101003.69;;;10.39;62.86
60845;BME280;47984;51.250;6.712;2022-10-16T05:19:53;101023.56;;;10.42;62.63
60845;BME280;47984;51.250;6.712;2022-10-16T05:22:20;101009.75;;;10.38;62.91
60845;BME280;47984;51.250;6.712;2022-10-16T05:24:47;101017.53;;;10.40;62.90
60845;BME280;47984;51.250;6.712;2022-10-16T05:27:14;101016.78;;;10.36;62.71
60845;BME280;47984;51.250;6.712;2022-10-16T05:29:46;101028.00;;;10.36;63.13
60845;BME280;47984;51.250;6.712;2022-10-16T05:32:17;101021.13;;;10.35;62.81
60845;BME280;47984;51.250;6.712;2022-10-16T05:34:45;101026.31;;;10.35;63.10
60845;BME280;47984;51.250;6.712;2022-10-16T05:37:12;101028.94;;;10.34;62.90
60845;BME280;47984;51.250;6.712;2022-10-16T05:39:39;101022.88;;;10.33;62.86
60845;BME280;47984;51.250;6.712;2022-10-16T05:42:06;101026.31;;;10.35;62.66
60845;BME280;47984;51.250;6.712;2022-10-16T05:44:33;101032.38;;;10.34;62.58
60845;BME280;47984;51.250;6.712;2022-10-16T05:47:05;101041.09;;;10.33;62.68
60845;BME280;47984;51.250;6.712;2022-10-16T05:49:31;101045.38;;;10.34;62.65
60845;BME280;47984;51.250;6.712;2022-10-16T05:52:02;101043.69;;;10.33;62.93
60845;BME280;47984;51.250;6.712;2022-10-16T05:54:32;101047.97;;;10.34;62.98
60845;BME280;47984;51.250;6.712;2022-10-16T05:56:58;101045.38;;;10.34;62.62
60845;BME280;47984;51.250;6.712;2022-10-16T05:59:25;101054.09;;;10.32;62.66
60845;BME280;47984;51.250;6.712;2022-10-16T06:01:52;101062.78;;;10.32;62.49
60845;BME280;47984;51.250;6.712;2022-10-16T06:04:20;101065.41;;;10.31;62.81
60845;BME280;47984;51.250;6.712;2022-10-16T06:06:47;101069.69;;;10.32;62.61
60845;BME280;47984;51.250;6.712;2022-10-16T06:09:14;101068.81;;;10.33;62.97
60845;BME280;47984;51.250;6.712;2022-10-16T06:11:41;101073.19;;;10.32;62.57
60845;BME280;47984;51.250;6.712;2022-10-16T06:14:08;101071.44;;;10.31;62.65
60845;BME280;47984;51.250;6.712;2022-10-16T06:16:36;101071.50;;;10.30;62.72
60845;BME280;47984;51.250;6.712;2022-10-16T06:19:04;101072.28;;;10.32;62.59
60845;BME280;47984;51.250;6.712;2022-10-16T06:21:33;101074.03;;;10.31;62.84
60845;BME280;47984;51.250;6.712;2022-10-16T06:24:00;101080.97;;;10.32;62.70
60845;BME280;47984;51.250;6.712;2022-10-16T06:26:30;101089.63;;;10.31;62.67
60845;BME280;47984;51.250;6.712;2022-10-16T06:28:58;101089.69;;;10.30;62.71
60845;BME280;47984;51.250;6.712;2022-10-16T06:31:25;101086.16;;;10.32;62.84
60845;BME280;47984;51.250;6.712;2022-10-16T06:33:55;101091.38;;;10.32;62.65
60845;BME280;47984;51.250;6.712;2022-10-16T06:36:23;101088.78;;;10.32;62.80
60845;BME280;47984;51.250;6.712;2022-10-16T06:38:51;101092.25;;;10.31;62.71
60845;BME280;47984;51.250;6.712;2022-10-16T06:41:20;101096.59;;;10.31;62.94
60845;BME280;47984;51.250;6.712;2022-10-16T06:43:48;101103.53;;;10.30;62.63
60845;BME280;47984;51.250;6.712;2022-10-16T06:46:18;101110.41;;;10.33;62.71
60845;BME280;47984;51.250;6.712;2022-10-16T06:48:46;101121.66;;;10.33;62.63
60845;BME280;47984;51.250;6.712;2022-10-16T06:51:23;101118.22;;;10.31;62.49
60845;BME280;47984;51.250;6.712;2022-10-16T06:53:52;101121.66;;;10.33;62.82
60845;BME280;47984;51.250;6.712;2022-10-16T06:56:32;101132.91;;;10.34;62.72
60845;BME280;47984;51.250;6.712;2022-10-16T06:58:59;101138.97;;;10.34;62.58
60845;BME280;47984;51.250;6.712;2022-10-16T07:01:26;101141.56;;;10.34;62.55
60845;BME280;47984;51.250;6.712;2022-10-16T07:03:54;101137.25;;;10.33;63.09
60845;BME280;47984;51.250;6.712;2022-10-16T07:06:24;101147.66;;;10.33;62.82
60845;BME280;47984;51.250;6.712;2022-10-16T07:08:52;101156.28;;;10.35;62.81
60845;BME280;47984;51.250;6.712;2022-10-16T07:11:21;101162.34;;;10.36;62.35
60845;BME280;47984;51.250;6.712;2022-10-16T07:13:50;101167.53;;;10.36;62.56
60845;BME280;47984;51.250;6.712;2022-10-16T07:16:26;101164.88;;;10.37;62.35
60845;BME280;47984;51.250;6.712;2022-10-16T07:18:55;101167.47;;;10.37;62.52
60845;BME280;47984;51.250;6.712;2022-10-16T07:21:33;101181.31;;;10.40;62.84
60845;BME280;47984;51.250;6.712;2022-10-16T07:24:05;101182.16;;;10.40;62.51
60845;BME280;47984;51.250;6.712;2022-10-16T07:26:34;101172.69;;;10.37;62.54
60845;BME280;47984;51.250;6.712;2022-10-16T07:29:02;101183.88;;;10.41;62.23
60845;BME280;47984;51.250;6.712;2022-10-16T07:31:30;101179.56;;;10.40;62.59
60845;BME280;47984;51.250;6.712;2022-10-16T07:33:58;101190.78;;;10.42;62.41
60845;BME280;47984;51.250;6.712;2022-10-16T07:36:25;101187.34;;;10.42;62.63
60845;BME280;47984;51.250;6.712;2022-10-16T07:38:52;101189.13;;;10.40;62.82
60845;BME280;47984;51.250;6.712;2022-10-16T07:41:25;101196.00;;;10.41;62.50
60845;BME280;47984;51.250;6.712;2022-10-16T07:43:53;101207.31;;;10.40;62.81
60845;BME280;47984;51.250;6.712;2022-10-16T07:46:22;101204.66;;;10.41;62.58
60845;BME280;47984;51.250;6.712;2022-10-16T07:48:49;101205.63;;;10.37;62.93
60845;BME280;47984;51.250;6.712;2022-10-16T07:51:19;101214.19;;;10.42;63.02
60845;BME280;47984;51.250;6.712;2022-10-16T07:53:47;101212.44;;;10.43;63.11
60845;BME280;47984;51.250;6.712;2022-10-16T07:56:15;101221.00;;;10.48;63.14
60845;BME280;47984;51.250;6.712;2022-10-16T07:58:43;101227.97;;;10.46;62.72
60845;BME280;47984;51.250;6.712;2022-10-16T08:01:13;101228.75;;;10.49;62.78
60845;BME280;47984;51.250;6.712;2022-10-16T08:03:44;101230.44;;;10.52;62.75
60845;BME280;47984;51.250;6.712;2022-10-16T08:06:12;101230.34;;;10.56;62.90
60845;BME280;47984;51.250;6.712;2022-10-16T08:08:39;101240.59;;;10.63;62.86
60845;BME280;47984;51.250;6.712;2022-10-16T08:11:06;101247.47;;;10.65;62.97
60845;BME280;47984;51.250;6.712;2022-10-16T08:13:33;101242.22;;;10.68;62.76
60845;BME280;47984;51.250;6.712;2022-10-16T08:16:00;101239.53;;;10.73;62.47
60845;BME280;47984;51.250;6.712;2022-10-16T08:18:28;101242.94;;;10.76;63.03
60845;BME280;47984;51.250;6.712;2022-10-16T08:20:56;101245.44;;;10.81;63.20
60845;BME280;47984;51.250;6.712;2022-10-16T08:23:24;101247.03;;;10.87;62.96
60845;BME280;47984;51.250;6.712;2022-10-16T08:26:01;101252.19;;;10.90;63.01
60845;BME280;47984;51.250;6.712;2022-10-16T08:28:28;101252.88;;;10.98;62.79
60845;BME280;47984;51.250;6.712;2022-10-16T08:30:55;101257.94;;;11.02;62.66
60845;BME280;47984;51.250;6.712;2022-10-16T08:33:23;101256.06;;;11.09;62.89
60845;BME280;47984;51.250;6.712;2022-10-16T08:35:53;101264.59;;;11.16;62.64
60845;BME280;47984;51.250;6.712;2022-10-16T08:38:21;101262.78;;;11.19;62.56
60845;BME280;47984;51.250;6.712;2022-10-16T08:40:48;101259.25;;;11.22;63.02
60845;BME280;47984;51.250;6.712;2022-10-16T08:46:09;101277.06;;;11.39;62.64
60845;BME280;47984;51.250;6.712;2022-10-16T08:48:49;101283.81;;;11.46;62.73
60845;BME280;47984;51.250;6.712;2022-10-16T08:51:26;101290.69;;;11.50;62.94
60845;BME280;47984;51.250;6.712;2022-10-16T08:53:59;101307.00;;;11.57;62.65
60845;BME280;47984;51.250;6.712;2022-10-16T08:56:28;101303.41;;;11.61;62.83
60845;BME280;47984;51.250;6.712;2022-10-16T08:58:58;101304.09;;;11.69;62.99
60845;BME280;47984;51.250;6.712;2022-10-16T09:01:44;101310.97;;;11.71;62.83
60845;BME280;47984;51.250;6.712;2022-10-16T09:04:48;101294.44;;;11.72;62.97
60845;BME280;47984;51.250;6.712;2022-10-16T09:07:34;101302.00;;;11.85;62.51
60845;BME280;47984;51.250;6.712;2022-10-16T09:10:15;101305.28;;;11.91;62.39
60845;BME280;47984;51.250;6.712;2022-10-16T09:15:34;101311.09;;;12.03;62.21
60845;BME280;47984;51.250;6.712;2022-10-16T09:18:06;101309.19;;;12.08;62.32
60845;BME280;47984;51.250;6.712;2022-10-16T09:20:56;101324.72;;;12.12;62.32
60845;BME280;47984;51.250;6.712;2022-10-16T09:23:29;101315.88;;;12.18;62.20
60845;BME280;47984;51.250;6.712;2022-10-16T09:25:58;101327.03;;;12.23;62.57
60845;BME280;47984;51.250;6.712;2022-10-16T09:28:25;101323.47;;;12.26;62.56
60845;BME280;47984;51.250;6.712;2022-10-16T09:30:52;101322.56;;;12.27;62.19
60845;BME280;47984;51.250;6.712;2022-10-16T09:33:30;101332.75;;;12.36;62.49
60845;BME280;47984;51.250;6.712;2022-10-16T09:35:59;101332.59;;;12.42;62.80
60845;BME280;47984;51.250;6.712;2022-10-16T09:38:34;101334.25;;;12.44;62.56
60845;BME280;47984;51.250;6.712;2022-10-16T09:41:20;101332.38;;;12.50;62.33
60845;BME280;47984;51.250;6.712;2022-10-16T09:43:55;101331.44;;;12.52;62.35
60845;BME280;47984;51.250;6.712;2022-10-16T09:46:30;101325.16;;;12.59;62.54
60845;BME280;47984;51.250;6.712;2022-10-16T09:49:03;101331.97;;;12.63;62.09
60845;BME280;47984;51.250;6.712;2022-10-16T09:51:35;101324.91;;;12.67;62.29
60845;BME280;47984;51.250;6.712;2022-10-16T09:56:35;101334.25;;;12.76;62.33
60845;BME280;47984;51.250;6.712;2022-10-16T09:59:12;101326.34;;;12.79;62.74
60845;BME280;47984;51.250;6.712;2022-10-16T10:01:44;101328.00;;;12.83;62.17
60845;BME280;47984;51.250;6.712;2022-10-16T10:04:12;101329.53;;;12.88;62.61
60845;BME280;47984;51.250;6.712;2022-10-16T10:06:50;101325.06;;;12.92;62.51
60845;BME280;47984;51.250;6.712;2022-10-16T10:09:37;101335.34;;;12.98;62.05
60845;BME280;47984;51.250;6.712;2022-10-16T10:12:06;101327.41;;;13.01;62.27
60845;BME280;47984;51.250;6.712;2022-10-16T10:14:49;101324.69;;;13.04;61.90
60845;BME280;47984;51.250;6.712;2022-10-16T10:17:24;101328.88;;;13.10;61.94
60845;BME280;47984;51.250;6.712;2022-10-16T10:19:54;101331.38;;;13.15;62.37
60845;BME280;47984;51.250;6.712;2022-10-16T10:22:30;101341.72;;;13.18;62.31
60845;BME280;47984;51.250;6.712;2022-10-16T10:25:07;101345.94;;;13.22;62.43
60845;BME280;47984;51.250;6.712;2022-10-16T10:30:56;101334.47;;;13.27;61.82
60845;BME280;47984;51.250;6.712;2022-10-16T10:33:52;101330.91;;;13.30;62.44
60845;BME280;47984;51.250;6.712;2022-10-16T11:01:30;101360.78;;;13.48;62.07
60845;BME280;47984;51.250;6.712;2022-10-16T11:04:20;101354.59;;;13.50;62.27
60845;BME280;47984;51.250;6.712;2022-10-16T11:07:04;101345.91;;;13.50;62.16
60845;BME280;47984;51.250;6.712;2022-10-16T11:09:36;101352.81;;;13.52;62.05
60845;BME280;47984;51.250;6.712;2022-10-16T11:17:20;101361.38;;;13.57;61.79
60845;BME280;47984;51.250;6.712;2022-10-16T11:19:53;101359.53;;;13.59;61.70
60845;BME280;47984;51.250;6.712;2022-10-16T11:22:39;101361.16;;;13.64;62.05
60845;BME280;47984;51.250;6.712;2022-10-16T11:25:26;101358.50;;;13.67;61.96
60845;BME280;47984;51.250;6.712;2022-10-16T11:30:28;101362.00;;;13.66;61.61
60845;BME280;47984;51.250;6.712;2022-10-16T11:36:15;101359.28;;;13.69;61.71
60845;BME280;47984;51.250;6.712;2022-10-16T11:38:45;101357.59;;;13.66;61.53
60845;BME280;47984;51.250;6.712;2022-10-16T11:47:31;101364.28;;;13.75;62.06
60845;BME280;47984;51.250;6.712;2022-10-16T11:50:28;101366.03;;;13.76;61.36
60845;BME280;47984;51.250;6.712;2022-10-16T11:53:04;101370.34;;;13.77;61.97
60845;BME280;47984;51.250;6.712;2022-10-16T11:55:40;101374.63;;;13.79;61.92
60845;BME280;47984;51.250;6.712;2022-10-16T11:58:31;101362.41;;;13.80;61.88
60845;BME280;47984;51.250;6.712;2022-10-16T12:01:24;101373.66;;;13.82;61.58
60845;BME280;47984;51.250;6.712;2022-10-16T12:09:00;101365.81;;;13.82;61.65
60845;BME280;47984;51.250;6.712;2022-10-16T12:16:32;101367.34;;;13.88;61.44
60845;BME280;47984;51.250;6.712;2022-10-16T12:19:14;101363.78;;;13.90;61.34
60845;BME280;47984;51.250;6.712;2022-10-16T12:21:44;101366.38;;;13.92;61.73
60845;BME280;47984;51.250;6.712;2022-10-16T12:24:44;101367.91;;;13.97;61.63
60845;BME280;47984;51.250;6.712;2022-10-16T12:27:30;101371.28;;;14.01;61.80
60845;BME280;47984;51.250;6.712;2022-10-16T12:30:03;101368.59;;;14.02;61.57
60845;BME280;47984;51.250;6.712;2022-10-16T12:32:34;101363.28;;;14.06;61.08
60845;BME280;47984;51.250;6.712;2022-10-16T12:35:23;101367.38;;;14.13;61.03
60845;BME280;47984;51.250;6.712;2022-10-16T12:37:51;101364.75;;;14.13;61.06
60845;BME280;47984;51.250;6.712;2022-10-16T12:40:32;101370.75;;;14.16;60.70
60845;BME280;47984;51.250;6.712;2022-10-16T12:43:11;101374.97;;;14.20;61.33
60845;BME280;47984;51.250;6.712;2022-10-16T12:45:38;101371.41;;;14.23;61.65
60845;BME280;47984;51.250;6.712;2022-10-16T12:48:20;101366.31;;;14.18;61.16
60845;BME280;47984;51.250;6.712;2022-10-16T12:50:54;101368.72;;;14.24;61.39
60845;BME280;47984;51.250;6.712;2022-10-16T12:53:24;101378.13;;;14.30;61.17
60845;BME280;47984;51.250;6.712;2022-10-16T13:06:53;101364.59;;;14.42;60.75
60845;BME280;47984;51.250;6.712;2022-10-16T13:09:39;101366.38;;;14.42;61.19
60845;BME280;47984;51.250;6.712;2022-10-16T13:12:28;101374.03;;;14.46;60.45
60845;BME280;47984;51.250;6.712;2022-10-16T13:15:11;101376.56;;;14.49;61.14
60845;BME280;47984;51.250;6.712;2022-10-16T13:28:29;101371.00;;;14.59;61.09
60845;BME280;47984;51.250;6.712;2022-10-16T13:30:59;101378.75;;;14.62;61.00
60845;BME280;47984;51.250;6.712;2022-10-16T13:33:36;101381.34;;;14.63;60.79
60845;BME280;47984;51.250;6.712;2022-10-16T13:36:05;101375.19;;;14.64;60.55
60845;BME280;47984;51.250;6.712;2022-10-16T13:38:36;101375.06;;;14.67;60.41
60845;BME280;47984;51.250;6.712;2022-10-16T13:41:15;101372.44;;;14.67;60.61
60845;BME280;47984;51.250;6.712;2022-10-16T13:43:51;101373.25;;;14.69;60.90
60845;BME280;47984;51.250;6.712;2022-10-16T13:46:22;101367.09;;;14.70;60.49
60845;BME280;47984;51.250;6.712;2022-10-16T13:49:05;101363.56;;;14.71;60.84
60845;BME280;47984;51.250;6.712;2022-10-16T13:51:37;101364.34;;;14.75;60.46
60845;BME280;47984;51.250;6.712;2022-10-16T13:54:04;101366.88;;;14.77;60.25
60845;BME280;47984;51.250;6.712;2022-10-16T13:56:32;101369.38;;;14.80;60.75
60845;BME280;47984;51.250;6.712;2022-10-16T13:59:04;101375.47;;;14.80;60.52
60845;BME280;47984;51.250;6.712;2022-10-16T14:01:41;101377.13;;;14.83;60.68
60845;BME280;47984;51.250;6.712;2022-10-16T14:04:11;101384.94;;;14.84;60.65
60845;BME280;47984;51.250;6.712;2022-10-16T14:06:42;101387.56;;;14.84;60.51
60845;BME280;47984;51.250;6.712;2022-10-16T14:09:25;101387.47;;;14.86;60.81
60845;BME280;47984;51.250;6.712;2022-10-16T14:12:20;101404.84;;;14.88;60.35
60845;BME280;47984;51.250;6.712;2022-10-16T14:14:54;101387.44;;;14.87;60.50
60845;BME280;47984;51.250;6.712;2022-10-16T14:19:53;101363.75;;;14.90;60.55
60845;BME280;47984;51.250;6.712;2022-10-16T14:22:38;101367.22;;;14.91;60.28
60845;BME280;47984;51.250;6.712;2022-10-16T14:28:00;101366.53;;;14.86;60.52
60845;BME280;47984;51.250;6.712;2022-10-16T14:30:35;101386.28;;;14.94;60.73
60845;BME280;47984;51.250;6.712;2022-10-16T14:33:22;101387.13;;;14.95;59.99
60845;BME280;47984;51.250;6.712;2022-10-16T14:38:42;101384.44;;;14.96;59.98
60845;BME280;47984;51.250;6.712;2022-10-16T14:41:10;101380.94;;;14.98;60.29
60845;BME280;47984;51.250;6.712;2022-10-16T14:43:37;101382.63;;;14.99;60.39
60845;BME280;47984;51.250;6.712;2022-10-16T14:46:13;101386.28;;;14.94;60.43
60845;BME280;47984;51.250;6.712;2022-10-16T14:48:46;101387.06;;;14.96;59.86
60845;BME280;47984;51.250;6.712;2022-10-16T14:51:15;101397.50;;;14.98;60.17
60845;BME280;47984;51.250;6.712;2022-10-16T14:53:42;101400.22;;;14.95;60.02
60845;BME280;47984;51.250;6.712;2022-10-16T14:56:23;101397.59;;;14.95;60.19
60845;BME280;47984;51.250;6.712;2022-10-16T14:58:52;101387.97;;;14.95;60.06
60845;BME280;47984;51.250;6.712;2022-10-16T15:01:20;101385.31;;;14.97;60.33
60845;BME280;47984;51.250;6.712;2022-10-16T15:03:47;101387.03;;;14.98;59.83
60845;BME280;47984;51.250;6.712;2022-10-16T15:06:15;101396.56;;;14.99;60.39